Time;durP1;ratioP1;P1;durP2;ratioP2;P2;SDS_P1;SDS_P2;PMS_P1;PMS_P2;Temp;Humidity;BMP_temperature;BMP_pressure;BME280_temperature;BME280_humidity;BME280_pressure;Samples;Min_cycle;Max_cycle;Signal;HPM_P1;HPM_P2
2023/09/18 05:54:07;;;;;;;8.18;7.10;;;;;;;;;;4965702;28;20065;-70
2023/09/18 05:56:33;;;;;;;9.02;8.05;;;;;;;;;;4970633;28;20062;-70
2023/09/18 05:58:59;;;;;;;10.80;7.13;;;;;;;;;;4953361;28;20527;-71
2023/09/18 06:01:25;;;;;;;12.82;7.47;;;;;;;;;;4970033;28;20050;-71
2023/09/18 06:03:51;;;;;;;8.80;7.95;;;;;;;;;;4964935;28;20043;-70
2023/09/18 06:06:17;;;;;;;11.15;7.15;;;;;;;;;;4963342;28;20129;-70
2023/09/18 06:08:44;;;;;;;10.68;7.28;;;;;;;;;;4977711;28;20642;-71
2023/09/18 06:11:09;;;;;;;7.80;7.10;;;;;;;;;;4969688;28;20047;-70
2023/09/18 06:13:37;;;;;;;12.27;8.07;;;;;;;;;;4969536;28;20515;-70
2023/09/18 06:16:07;;;;;;;9.10;7.18;;;;;;;;;;4968647;28;20039;-70
2023/09/18 06:18:33;;;;;;;16.17;6.93;;;;;;;;;;4980865;28;20735;-70
2023/09/18 06:20:58;;;;;;;10.57;8.00;;;;;;;;;;4951062;28;20058;-71
2023/09/18 06:23:25;;;;;;;6.95;6.28;;;;;;;;;;4950535;28;20107;-73
2023/09/18 06:25:56;;;;;;;12.20;6.70;;;;;;;;;;4936162;28;20047;-72
2023/09/18 06:28:22;;;;;;;7.78;7.05;;;;;;;;;;4954752;28;20633;-71
2023/09/18 06:30:48;;;;;;;6.93;6.13;;;;;;;;;;4940387;28;20672;-70
2023/09/18 06:33:15;;;;;;;10.38;6.85;;;;;;;;;;4993828;28;20050;-73
2023/09/18 06:35:41;;;;;;;9.93;6.80;;;;;;;;;;4975905;28;20069;-73
2023/09/18 06:38:10;;;;;;;12.48;6.70;;;;;;;;;;4981201;28;20030;-70
2023/09/18 06:40:35;;;;;;;8.98;6.85;;;;;;;;;;4973599;28;20066;-71
2023/09/18 06:43:01;;;;;;;6.35;5.85;;;;;;;;;;4957211;28;20070;-70
2023/09/18 06:45:28;;;;;;;6.82;6.22;;;;;;;;;;4973991;28;20047;-70
2023/09/18 06:47:54;;;;;;;7.15;6.53;;;;;;;;;;4974069;28;20043;-71
2023/09/18 06:50:20;;;;;;;7.40;6.65;;;;;;;;;;4974241;28;20049;-71
2023/09/18 06:52:46;;;;;;;11.27;7.05;;;;;;;;;;4974260;28;20514;-72
2023/09/18 06:55:12;;;;;;;7.50;6.57;;;;;;;;;;4955633;28;20058;-71
2023/09/18 06:57:38;;;;;;;8.32;6.93;;;;;;;;;;4973609;28;20045;-70
2023/09/18 07:00:05;;;;;;;11.50;7.93;;;;;;;;;;4956606;28;20130;-71
2023/09/18 07:02:31;;;;;;;8.40;7.13;;;;;;;;;;4973235;28;20097;-70
2023/09/18 07:04:57;;;;;;;8.68;6.93;;;;;;;;;;4956263;28;20046;-71
2023/09/18 07:07:25;;;;;;;9.77;6.90;;;;;;;;;;4973611;28;20043;-72
2023/09/18 07:09:51;;;;;;;7.10;6.50;;;;;;;;;;4973256;28;20569;-72
2023/09/18 07:12:20;;;;;;;8.13;6.55;;;;;;;;;;4973056;28;20078;-72
2023/09/18 07:14:46;;;;;;;7.28;6.63;;;;;;;;;;4973082;28;20093;-71
2023/09/18 07:17:12;;;;;;;9.07;6.95;;;;;;;;;;4973424;28;20057;-73
2023/09/18 07:19:38;;;;;;;5.20;4.70;;;;;;;;;;4956043;28;20043;-73
2023/09/18 07:22:04;;;;;;;7.93;6.35;;;;;;;;;;4972646;28;20123;-73
2023/09/18 07:24:30;;;;;;;6.70;6.20;;;;;;;;;;4972245;28;20507;-72
2023/09/18 07:26:57;;;;;;;11.52;7.00;;;;;;;;;;4972587;28;20049;-72
2023/09/18 07:29:25;;;;;;;7.57;6.78;;;;;;;;;;4973323;28;20546;-77
2023/09/18 07:31:51;;;;;;;13.07;7.03;;;;;;;;;;4955478;28;20059;-73
2023/09/18 07:34:20;;;;;;;18.33;7.13;;;;;;;;;;4972294;28;20043;-72
2023/09/18 07:36:46;;;;;;;7.63;6.32;;;;;;;;;;4971922;28;20051;-72
2023/09/18 07:39:12;;;;;;;7.82;6.95;;;;;;;;;;4972918;28;20054;-71
2023/09/18 07:41:39;;;;;;;7.50;6.78;;;;;;;;;;4975227;28;20410;-79
2023/09/18 07:44:05;;;;;;;4.93;3.50;;;;;;;;;;4940288;28;20050;-77
2023/09/18 07:46:31;;;;;;;9.63;6.53;;;;;;;;;;4972563;28;20043;-76
2023/09/18 07:48:57;;;;;;;7.47;6.45;;;;;;;;;;4955135;28;20518;-79
2023/09/18 07:51:24;;;;;;;10.98;6.97;;;;;;;;;;4991655;28;20109;-74
2023/09/18 07:53:50;;;;;;;9.95;6.78;;;;;;;;;;4990610;28;20459;-76
2023/09/18 07:56:17;;;;;;;7.15;6.28;;;;;;;;;;4992469;28;20045;-76
2023/09/18 07:58:43;;;;;;;7.57;6.60;;;;;;;;;;4974841;28;20050;-76
2023/09/18 08:01:10;;;;;;;8.90;6.90;;;;;;;;;;4990959;28;20049;-81
2023/09/18 08:03:35;;;;;;;7.53;6.70;;;;;;;;;;4991176;28;20074;-76
2023/09/18 08:06:04;;;;;;;10.70;6.25;;;;;;;;;;4982371;28;20038;-76
2023/09/18 08:08:32;;;;;;;6.75;6.15;;;;;;;;;;4971341;28;20133;-76
2023/09/18 08:11:00;;;;;;;8.88;6.78;;;;;;;;;;4972348;28;20133;-77
2023/09/18 08:13:26;;;;;;;8.10;6.70;;;;;;;;;;4972439;28;20100;-75
2023/09/18 08:15:52;;;;;;;9.18;6.70;;;;;;;;;;4972584;28;20549;-77
2023/09/18 08:18:18;;;;;;;7.85;6.38;;;;;;;;;;4956067;28;20054;-77
2023/09/18 08:20:44;;;;;;;7.43;6.72;;;;;;;;;;4939459;28;20047;-75
2023/09/18 08:23:10;;;;;;;7.35;6.65;;;;;;;;;;4955107;28;20126;-76
2023/09/18 08:25:36;;;;;;;16.00;6.55;;;;;;;;;;4971267;28;20443;-77
2023/09/18 08:28:04;;;;;;;7.00;6.25;;;;;;;;;;4972362;28;20054;-77
2023/09/18 08:30:31;;;;;;;7.88;7.07;;;;;;;;;;4971327;28;20055;-76
2023/09/18 08:32:57;;;;;;;15.57;7.10;;;;;;;;;;4955764;28;20699;-78
2023/09/18 08:35:27;;;;;;;12.52;6.68;;;;;;;;;;4971519;28;20039;-76
2023/09/18 08:37:53;;;;;;;11.18;6.25;;;;;;;;;;4968541;28;20043;-76
2023/09/18 08:40:19;;;;;;;8.45;6.50;;;;;;;;;;4971758;28;20117;-75
2023/09/18 08:42:46;;;;;;;12.25;6.30;;;;;;;;;;4954713;28;20043;-77
2023/09/18 08:45:14;;;;;;;6.97;6.25;;;;;;;;;;4971367;28;20050;-77
2023/09/18 08:47:40;;;;;;;8.95;6.93;;;;;;;;;;4954297;28;20038;-78
2023/09/18 08:50:07;;;;;;;11.43;7.05;;;;;;;;;;4971692;28;20088;-74
2023/09/18 08:52:33;;;;;;;13.80;6.85;;;;;;;;;;4972092;28;20054;-76
2023/09/18 08:55:00;;;;;;;11.32;7.07;;;;;;;;;;4971967;28;20062;-75
2023/09/18 08:57:28;;;;;;;18.60;7.70;;;;;;;;;;4954831;28;20038;-76
2023/09/18 08:59:54;;;;;;;8.40;6.45;;;;;;;;;;4973344;28;20137;-78
2023/09/18 09:02:20;;;;;;;13.77;7.55;;;;;;;;;;4958888;28;20038;-76
2023/09/18 09:04:46;;;;;;;9.35;7.00;;;;;;;;;;4973572;28;20043;-79
2023/09/18 09:07:12;;;;;;;10.50;7.18;;;;;;;;;;4972812;28;20049;-79
2023/09/18 09:09:38;;;;;;;11.95;7.22;;;;;;;;;;4976083;28;20043;-78
2023/09/18 09:12:04;;;;;;;10.13;6.13;;;;;;;;;;4970570;28;20061;-78
2023/09/18 09:14:30;;;;;;;8.73;6.93;;;;;;;;;;4970559;28;20031;-77
2023/09/18 09:16:59;;;;;;;13.60;7.05;;;;;;;;;;4968561;28;20054;-78
2023/09/18 09:19:29;;;;;;;10.63;6.75;;;;;;;;;;4967932;28;20050;-77
2023/09/18 09:21:57;;;;;;;9.35;7.28;;;;;;;;;;4966823;28;20074;-78
2023/09/18 09:24:37;;;;;;;13.80;8.02;;;;;;;;;;4969094;28;20039;-78
2023/09/18 09:27:03;;;;;;;8.70;6.85;;;;;;;;;;4968141;28;20078;-78
2023/09/18 09:29:29;;;;;;;10.15;7.13;;;;;;;;;;4968906;28;20035;-78
2023/09/18 09:31:57;;;;;;;10.05;6.38;;;;;;;;;;4969109;28;20058;-78
2023/09/18 09:34:26;;;;;;;10.75;6.60;;;;;;;;;;4972858;28;20046;-77
2023/09/18 09:36:53;;;;;;;9.70;6.28;;;;;;;;;;4973023;28;20051;-77
2023/09/18 09:39:21;;;;;;;7.90;7.20;;;;;;;;;;4973494;28;20043;-77
2023/09/18 09:41:48;;;;;;;13.63;7.28;;;;;;;;;;4939588;28;20094;-77
2023/09/18 09:44:14;;;;;;;14.05;6.72;;;;;;;;;;4972991;28;20126;-76
2023/09/18 09:46:49;;;;;;;12.43;7.03;;;;;;;;;;4955226;28;20082;-77
2023/09/18 09:49:16;;;;;;;10.52;5.88;;;;;;;;;;4956154;28;20515;-78
2023/09/18 09:51:42;;;;;;;11.27;7.72;;;;;;;;;;4972603;28;20051;-78
2023/09/18 09:54:08;;;;;;;9.48;7.40;;;;;;;;;;4973018;28;20115;-77
2023/09/18 09:56:40;;;;;;;10.40;7.25;;;;;;;;;;4973283;28;20137;-78
2023/09/18 09:59:07;;;;;;;11.52;7.43;;;;;;;;;;4938898;28;20039;-75
2023/09/18 10:01:34;;;;;;;10.75;6.85;;;;;;;;;;4973688;28;20042;-78
2023/09/18 10:04:03;;;;;;;11.20;7.38;;;;;;;;;;4972809;28;20049;-78
2023/09/18 10:06:30;;;;;;;15.63;7.20;;;;;;;;;;4958941;28;20090;-77
2023/09/18 10:08:56;;;;;;;9.45;7.07;;;;;;;;;;4965737;28;20046;-77
2023/09/18 10:11:22;;;;;;;9.13;6.20;;;;;;;;;;4965335;28;20553;-77
2023/09/18 10:13:51;;;;;;;7.90;7.18;;;;;;;;;;4957271;28;20064;-78
2023/09/18 10:16:21;;;;;;;15.30;7.82;;;;;;;;;;4972403;28;20046;-77
2023/09/18 10:18:53;;;;;;;7.13;6.43;;;;;;;;;;4955449;28;20035;-76
2023/09/18 10:21:27;;;;;;;8.88;6.75;;;;;;;;;;4973386;28;20078;-78
2023/09/18 10:23:59;;;;;;;13.60;6.22;;;;;;;;;;4940406;28;20529;-76
2023/09/18 10:26:25;;;;;;;11.10;6.63;;;;;;;;;;4972323;28;20047;-77
2023/09/18 10:28:53;;;;;;;12.07;6.70;;;;;;;;;;4971795;28;20051;-77
2023/09/18 10:31:19;;;;;;;10.07;6.57;;;;;;;;;;4971219;28;20058;-77
2023/09/18 10:33:46;;;;;;;17.33;7.10;;;;;;;;;;4970810;28;20050;-77
2023/09/18 10:36:12;;;;;;;8.85;7.57;;;;;;;;;;4969956;28;20470;-78
2023/09/18 10:38:38;;;;;;;7.07;6.38;;;;;;;;;;4954432;28;20034;-77
2023/09/18 10:41:04;;;;;;;12.18;7.20;;;;;;;;;;4971159;28;20098;-78
2023/09/18 10:43:30;;;;;;;13.68;7.28;;;;;;;;;;4971102;28;20039;-77
2023/09/18 10:45:56;;;;;;;17.40;7.65;;;;;;;;;;4971001;28;20101;-77
2023/09/18 10:48:22;;;;;;;9.70;6.05;;;;;;;;;;4971116;28;20041;-77
2023/09/18 10:50:49;;;;;;;9.18;5.40;;;;;;;;;;4954802;28;20047;-77
2023/09/18 10:53:14;;;;;;;7.40;6.75;;;;;;;;;;4954971;28;20070;-78
2023/09/18 10:55:41;;;;;;;13.02;7.18;;;;;;;;;;4954708;28;20515;-78
2023/09/18 10:58:08;;;;;;;8.02;6.35;;;;;;;;;;4954765;28;20058;-77
2023/09/18 11:00:36;;;;;;;11.60;6.93;;;;;;;;;;4971228;28;20054;-78
2023/09/18 11:03:23;;;;;;;11.13;6.90;;;;;;;;;;4954669;28;20142;-77
2023/09/18 11:06:01;;;;;;;16.98;7.03;;;;;;;;;;4971291;28;20435;-77
2023/09/18 11:08:28;;;;;;;8.40;6.60;;;;;;;;;;4954214;28;20062;-77
2023/09/18 11:10:55;;;;;;;10.88;6.50;;;;;;;;;;4940085;28;20507;-78
2023/09/18 11:13:28;;;;;;;10.07;6.82;;;;;;;;;;4974488;28;20130;-78
2023/09/18 11:15:59;;;;;;;8.73;6.20;;;;;;;;;;4957368;28;20050;-77
2023/09/18 11:18:25;;;;;;;9.10;8.02;;;;;;;;;;4976117;28;20582;-78
2023/09/18 11:21:06;;;;;;;11.02;7.15;;;;;;;;;;4957257;28;20050;-77
2023/09/18 11:23:37;;;;;;;9.13;6.35;;;;;;;;;;4975359;28;20037;-77
2023/09/18 11:26:07;;;;;;;11.27;6.13;;;;;;;;;;4974251;28;20081;-79
2023/09/18 11:28:33;;;;;;;;;;;;;;;;;;4976057;28;20054;-79
2023/09/18 11:31:00;;;;;;;9.10;6.30;;;;;;;;;;4974646;28;19914;-79
2023/09/18 11:33:36;;;;;;;20.33;6.28;;;;;;;;;;4974719;28;20046;-78
2023/09/18 11:36:05;;;;;;;9.27;6.85;;;;;;;;;;4974032;28;20074;-78
2023/09/18 11:38:33;;;;;;;8.13;6.53;;;;;;;;;;4973125;28;20039;-77
2023/09/18 11:41:01;;;;;;;7.53;6.45;;;;;;;;;;4974052;28;20043;-78
2023/09/18 11:43:30;;;;;;;9.45;6.65;;;;;;;;;;4957309;28;20094;-76
2023/09/18 11:45:57;;;;;;;10.87;7.20;;;;;;;;;;4941295;28;20419;-78
2023/09/18 11:48:27;;;;;;;9.82;6.72;;;;;;;;;;4974756;28;20042;-78
2023/09/18 11:50:54;;;;;;;10.32;6.55;;;;;;;;;;4975234;28;20042;-78
2023/09/18 11:53:20;;;;;;;9.45;7.25;;;;;;;;;;4960018;28;20078;-79
2023/09/18 11:55:46;;;;;;;12.10;7.20;;;;;;;;;;4958637;28;20051;-78
2023/09/18 11:58:13;;;;;;;12.27;7.75;;;;;;;;;;4973909;28;20070;-80
2023/09/18 12:00:45;;;;;;;10.35;7.25;;;;;;;;;;4975303;28;20093;-78
2023/09/18 12:03:24;;;;;;;7.53;6.93;;;;;;;;;;4974687;28;20126;-79
2023/09/18 12:06:13;;;;;;;8.90;6.95;;;;;;;;;;4974620;28;20102;-78
2023/09/18 12:08:39;;;;;;;10.07;6.28;;;;;;;;;;4975603;28;20042;-78
2023/09/18 12:11:05;;;;;;;12.38;6.18;;;;;;;;;;4941793;28;20086;-77
2023/09/18 12:13:31;;;;;;;11.07;5.85;;;;;;;;;;4941484;28;20043;-78
2023/09/18 12:16:01;;;;;;;8.40;6.35;;;;;;;;;;4955998;28;20046;-78
2023/09/18 12:18:28;;;;;;;10.65;5.38;;;;;;;;;;4973618;28;20042;-77
2023/09/18 12:20:56;;;;;;;6.43;5.88;;;;;;;;;;4972452;28;20043;-77
2023/09/18 12:23:22;;;;;;;8.57;5.40;;;;;;;;;;4973451;28;20073;-78
2023/09/18 12:25:48;;;;;;;6.32;5.72;;;;;;;;;;4940628;28;20047;-77
2023/09/18 12:28:17;;;;;;;33.25;16.63;;;;;;;;;;4956481;28;20114;-78
2023/09/18 12:30:46;;;;;;;57.83;26.90;;;;;;;;;;4972536;28;20047;-77
2023/09/18 12:33:13;;;;;;;36.03;16.25;;;;;;;;;;4956523;28;20142;-77
2023/09/18 12:35:40;;;;;;;16.35;8.10;;;;;;;;;;4956032;28;20179;-78
2023/09/18 12:38:15;;;;;;;8.90;6.90;;;;;;;;;;4973344;28;20039;-78
2023/09/18 12:40:43;;;;;;;9.52;7.20;;;;;;;;;;4973220;28;20047;-78
2023/09/18 12:43:09;;;;;;;7.40;5.60;;;;;;;;;;4973120;28;20041;-78
2023/09/18 12:45:35;;;;;;;6.25;4.88;;;;;;;;;;4973271;28;20137;-78
2023/09/18 12:48:03;;;;;;;11.68;5.60;;;;;;;;;;4955527;28;20027;-77
2023/09/18 12:50:29;;;;;;;8.98;6.28;;;;;;;;;;4973063;28;20150;-77
2023/09/18 12:53:08;;;;;;;11.55;6.53;;;;;;;;;;4972671;28;20410;-77
2023/09/18 12:55:37;;;;;;;12.50;7.03;;;;;;;;;;4955258;28;20066;-76
2023/09/18 12:58:08;;;;;;;8.40;7.60;;;;;;;;;;4955302;28;20478;-77
2023/09/18 13:00:34;;;;;;;15.80;7.82;;;;;;;;;;4972889;28;20039;-77
2023/09/18 13:03:04;;;;;;;20.20;7.80;;;;;;;;;;4955595;28;20043;-77
2023/09/18 13:05:32;;;;;;;11.88;6.82;;;;;;;;;;4955764;28;20137;-77
2023/09/18 13:08:08;;;;;;;16.52;7.93;;;;;;;;;;4956399;28;20054;-77
2023/09/18 13:10:41;;;;;;;9.95;6.03;;;;;;;;;;4973277;28;20042;-78
2023/09/18 13:13:07;;;;;;;11.52;6.63;;;;;;;;;;4957470;28;20054;-76
2023/09/18 13:15:33;;;;;;;16.88;8.63;;;;;;;;;;4973500;28;20526;-77
2023/09/18 13:18:00;;;;;;;12.27;6.10;;;;;;;;;;4965138;28;20400;-78
2023/09/18 13:20:28;;;;;;;10.88;6.32;;;;;;;;;;4983009;28;20030;-77
2023/09/18 13:22:55;;;;;;;15.07;7.20;;;;;;;;;;4944809;28;20475;-80
2023/09/18 13:25:22;;;;;;;9.80;5.80;;;;;;;;;;4973450;28;20098;-77
2023/09/18 13:27:49;;;;;;;9.02;5.63;;;;;;;;;;4972831;28;20041;-75
2023/09/18 13:30:17;;;;;;;8.23;5.63;;;;;;;;;;4972180;28;20034;-77
2023/09/18 13:32:44;;;;;;;9.98;6.00;;;;;;;;;;4971058;28;20082;-77
2023/09/18 13:35:13;;;;;;;7.65;5.65;;;;;;;;;;4970825;28;20038;-77
2023/09/18 13:37:39;;;;;;;9.90;6.65;;;;;;;;;;4971333;28;20046;-77
2023/09/18 13:40:09;;;;;;;13.93;6.40;;;;;;;;;;4948741;28;20030;-77
2023/09/18 13:42:35;;;;;;;12.85;6.88;;;;;;;;;;4970442;28;20579;-77
2023/09/18 13:45:01;;;;;;;14.50;6.60;;;;;;;;;;4970099;28;20043;-77
2023/09/18 13:47:30;;;;;;;10.13;7.03;;;;;;;;;;4971363;28;20048;-77
2023/09/18 13:49:59;;;;;;;16.10;6.05;;;;;;;;;;4971231;28;20134;-77
2023/09/18 13:52:32;;;;;;;10.57;6.80;;;;;;;;;;4962014;28;20151;-77
2023/09/18 13:54:58;;;;;;;7.05;6.40;;;;;;;;;;4946216;28;20584;-76
2023/09/18 13:57:24;;;;;;;10.75;6.50;;;;;;;;;;4971259;28;20045;-77
2023/09/18 13:59:50;;;;;;;11.18;7.00;;;;;;;;;;4975242;28;20129;-76
2023/09/18 14:02:16;;;;;;;7.05;6.45;;;;;;;;;;4949995;28;20043;-76
2023/09/18 14:04:42;;;;;;;10.82;6.38;;;;;;;;;;4943297;28;20070;-77
2023/09/18 14:07:08;;;;;;;11.27;7.43;;;;;;;;;;4962207;28;20523;-76
2023/09/18 14:09:34;;;;;;;16.23;7.18;;;;;;;;;;4965783;28;20455;-76
2023/09/18 14:12:01;;;;;;;8.60;7.70;;;;;;;;;;4970178;28;20054;-77
2023/09/18 14:14:27;;;;;;;14.65;8.10;;;;;;;;;;4945674;28;20031;-75
2023/09/18 14:16:57;;;;;;;12.88;8.60;;;;;;;;;;4971282;28;20046;-77
2023/09/18 14:19:23;;;;;;;10.77;8.60;;;;;;;;;;4938706;28;20049;-76
2023/09/18 14:21:49;;;;;;;11.15;8.75;;;;;;;;;;4970432;28;20046;-77
2023/09/18 14:24:18;;;;;;;9.30;8.30;;;;;;;;;;4953969;28;20393;-78
2023/09/18 14:26:44;;;;;;;9.55;8.52;;;;;;;;;;4971387;28;20204;-77
2023/09/18 14:29:10;;;;;;;10.45;8.68;;;;;;;;;;4971113;28;20022;-76
2023/09/18 14:31:36;;;;;;;11.48;9.07;;;;;;;;;;4970952;28;20085;-77
2023/09/18 14:34:04;;;;;;;11.88;8.98;;;;;;;;;;4971014;28;20113;-77
2023/09/18 14:36:31;;;;;;;14.40;9.85;;;;;;;;;;4970568;28;20491;-77
2023/09/18 14:38:57;;;;;;;11.77;9.52;;;;;;;;;;4953196;28;20062;-77
2023/09/18 14:41:25;;;;;;;11.00;9.48;;;;;;;;;;4973179;28;20130;-77
2023/09/18 14:43:51;;;;;;;11.65;9.20;;;;;;;;;;4971116;28;20043;-78
2023/09/18 14:46:17;;;;;;;13.20;10.02;;;;;;;;;;4974218;28;20046;-77
2023/09/18 14:48:43;;;;;;;12.77;9.48;;;;;;;;;;4974592;28;20042;-76
2023/09/18 14:51:09;;;;;;;9.55;8.50;;;;;;;;;;4956994;28;20422;-76
2023/09/18 14:53:35;;;;;;;14.77;10.18;;;;;;;;;;4975081;28;20050;-76
2023/09/18 14:56:03;;;;;;;9.77;8.82;;;;;;;;;;4974408;28;20039;-76
2023/09/18 14:58:40;;;;;;;11.50;9.35;;;;;;;;;;4973929;28;20061;-77
2023/09/18 15:01:06;;;;;;;17.55;9.25;;;;;;;;;;4945343;28;20042;-76
2023/09/18 15:03:32;;;;;;;12.77;8.88;;;;;;;;;;4973883;28;20403;-76
2023/09/18 15:05:58;;;;;;;14.82;8.52;;;;;;;;;;4957116;28;20121;-77
2023/09/18 15:08:24;;;;;;;9.18;8.25;;;;;;;;;;4974506;28;20129;-76
2023/09/18 15:10:50;;;;;;;9.60;8.70;;;;;;;;;;4975513;28;20130;-76
2023/09/18 15:13:17;;;;;;;9.57;8.43;;;;;;;;;;4975488;28;20145;-76
2023/09/18 15:15:43;;;;;;;11.60;8.45;;;;;;;;;;4974310;28;20066;-77
2023/09/18 15:18:09;;;;;;;13.15;7.85;;;;;;;;;;4956746;28;20054;-76
2023/09/18 15:20:35;;;;;;;10.38;8.85;;;;;;;;;;4973015;28;20407;-78
2023/09/18 15:23:01;;;;;;;8.90;7.78;;;;;;;;;;4974162;28;20415;-76
2023/09/18 15:25:28;;;;;;;11.02;7.80;;;;;;;;;;4974572;28;20081;-82
2023/09/18 15:27:54;;;;;;;9.13;8.00;;;;;;;;;;4972664;28;20039;-77
2023/09/18 15:30:20;;;;;;;17.20;8.43;;;;;;;;;;4972478;28;20054;-77
2023/09/18 15:32:49;;;;;;;17.95;7.57;;;;;;;;;;4955178;28;20049;-79
2023/09/18 15:35:15;;;;;;;26.30;8.38;;;;;;;;;;4974280;28;20464;-77
2023/09/18 15:37:42;;;;;;;14.68;6.40;;;;;;;;;;4973322;28;20042;-77
2023/09/18 15:40:09;;;;;;;14.88;5.55;;;;;;;;;;4972711;28;20519;-76
2023/09/18 15:42:35;;;;;;;12.77;6.00;;;;;;;;;;4956572;28;20055;-77
2023/09/18 15:45:01;;;;;;;16.60;6.60;;;;;;;;;;4974638;28;20042;-77
2023/09/18 15:47:29;;;;;;;15.30;6.85;;;;;;;;;;4970907;28;20053;-77
2023/09/18 15:49:55;;;;;;;7.47;6.05;;;;;;;;;;4938082;28;20635;-77
2023/09/18 15:52:21;;;;;;;10.77;7.43;;;;;;;;;;4971279;28;20046;-78
2023/09/18 15:54:47;;;;;;;14.63;8.15;;;;;;;;;;4973179;28;20066;-79
2023/09/18 15:57:14;;;;;;;14.70;6.40;;;;;;;;;;4971687;28;20194;-77
2023/09/18 15:59:41;;;;;;;19.83;8.18;;;;;;;;;;4955896;28;20043;-78
2023/09/18 16:02:07;;;;;;;13.13;9.00;;;;;;;;;;4973147;28;20058;-78
2023/09/18 16:04:35;;;;;;;19.45;9.43;;;;;;;;;;4973612;28;20031;-77
2023/09/18 16:07:02;;;;;;;20.73;8.52;;;;;;;;;;4971598;28;20050;-77
2023/09/18 16:09:28;;;;;;;26.27;10.05;;;;;;;;;;4973305;28;20181;-78
2023/09/18 16:11:54;;;;;;;22.45;8.65;;;;;;;;;;4972880;28;20551;-77
2023/09/18 16:14:20;;;;;;;11.95;7.65;;;;;;;;;;4955518;28;20039;-78
2023/09/18 16:16:47;;;;;;;24.55;7.55;;;;;;;;;;4972720;28;20046;-78
2023/09/18 16:19:13;;;;;;;20.40;7.90;;;;;;;;;;4973150;28;20526;-77
2023/09/18 16:21:39;;;;;;;21.52;7.30;;;;;;;;;;4972221;28;20562;-77
2023/09/18 16:24:06;;;;;;;16.30;7.20;;;;;;;;;;4972680;28;20051;-77
2023/09/18 16:26:33;;;;;;;14.20;7.72;;;;;;;;;;4972751;28;20041;-77
2023/09/18 16:29:02;;;;;;;11.55;7.30;;;;;;;;;;4970769;28;20129;-77
2023/09/18 16:31:29;;;;;;;13.30;7.28;;;;;;;;;;4956189;28;20046;-75
2023/09/18 16:33:55;;;;;;;14.35;7.75;;;;;;;;;;4974154;28;20074;-77
2023/09/18 16:36:21;;;;;;;19.45;7.93;;;;;;;;;;4956239;28;20043;-77
2023/09/18 16:38:48;;;;;;;15.85;7.30;;;;;;;;;;4962037;28;20046;-77
2023/09/18 16:41:14;;;;;;;16.67;7.68;;;;;;;;;;4983700;28;20125;-77
2023/09/18 16:43:40;;;;;;;18.65;8.95;;;;;;;;;;4964485;28;20039;-76
2023/09/18 16:46:06;;;;;;;13.00;7.40;;;;;;;;;;4969821;28;20039;-77
2023/09/18 16:48:34;;;;;;;14.13;9.40;;;;;;;;;;4964932;28;20423;-77
2023/09/18 16:51:00;;;;;;;11.65;8.30;;;;;;;;;;4967135;28;20116;-77
2023/09/18 16:53:26;;;;;;;12.35;7.53;;;;;;;;;;4955333;28;20058;-77
2023/09/18 16:55:52;;;;;;;25.48;10.95;;;;;;;;;;4954973;28;20070;-77
2023/09/18 16:58:18;;;;;;;12.00;9.60;;;;;;;;;;4980605;28;20053;-77
2023/09/18 17:00:44;;;;;;;19.00;9.55;;;;;;;;;;4972901;28;20121;-77
2023/09/18 17:03:10;;;;;;;16.00;8.45;;;;;;;;;;4954722;28;20069;-75
2023/09/18 17:05:36;;;;;;;8.55;7.10;;;;;;;;;;4972091;28;20500;-75
2023/09/18 17:08:03;;;;;;;9.15;8.15;;;;;;;;;;4955579;28;20041;-76
2023/09/18 17:10:30;;;;;;;9.32;8.45;;;;;;;;;;4973223;28;20137;-75
2023/09/18 17:12:56;;;;;;;10.95;9.85;;;;;;;;;;4973715;28;20070;-76
2023/09/18 17:15:22;;;;;;;21.63;10.98;;;;;;;;;;4972165;28;20089;-79
2023/09/18 17:17:48;;;;;;;18.13;9.25;;;;;;;;;;4933456;28;20138;-78
2023/09/18 17:20:16;;;;;;;17.85;9.65;;;;;;;;;;4972075;28;20078;-80
2023/09/18 17:22:46;;;;;;;13.88;9.88;;;;;;;;;;4955360;28;20046;-79
2023/09/18 17:25:12;;;;;;;16.35;9.50;;;;;;;;;;4955655;28;20125;-80
2023/09/18 17:27:38;;;;;;;13.85;10.80;;;;;;;;;;4967731;28;20042;-70
2023/09/18 17:30:05;;;;;;;12.18;9.27;;;;;;;;;;4970477;28;20503;-71
2023/09/18 17:32:31;;;;;;;9.75;6.95;;;;;;;;;;4954057;28;20051;-71
2023/09/18 17:34:57;;;;;;;16.35;8.27;;;;;;;;;;4954667;28;20050;-71
2023/09/18 17:37:25;;;;;;;18.23;8.70;;;;;;;;;;4951435;29;20134;-71
2023/09/18 17:39:51;;;;;;;11.70;9.98;;;;;;;;;;4939354;28;20180;-72
2023/09/18 17:42:17;;;;;;;15.00;9.90;;;;;;;;;;4969341;28;20047;-71
2023/09/18 17:44:43;;;;;;;11.45;9.70;;;;;;;;;;4971002;28;20097;-71
2023/09/18 17:47:09;;;;;;;11.70;9.25;;;;;;;;;;4970533;28;20038;-70
2023/09/18 17:49:36;;;;;;;10.30;9.02;;;;;;;;;;4970766;28;20039;-72
2023/09/18 17:52:08;;;;;;;9.65;8.77;;;;;;;;;;4937549;28;20050;-72
2023/09/18 17:54:35;;;;;;;12.63;10.80;;;;;;;;;;4953428;28;20065;-71
2023/09/18 17:57:01;;;;;;;13.35;11.02;;;;;;;;;;4969241;28;20043;-71
2023/09/18 17:59:28;;;;;;;16.63;10.32;;;;;;;;;;4970527;28;20082;-72
2023/09/18 18:01:54;;;;;;;11.63;10.05;;;;;;;;;;4970598;28;20057;-72
2023/09/18 18:04:20;;;;;;;11.85;9.85;;;;;;;;;;4952956;28;20047;-71
2023/09/18 18:06:46;;;;;;;16.42;9.98;;;;;;;;;;4970241;28;20090;-71
2023/09/18 18:09:12;;;;;;;27.30;14.32;;;;;;;;;;4936981;28;20038;-71
2023/09/18 18:11:38;;;;;;;24.30;15.52;;;;;;;;;;4969533;28;20049;-70
2023/09/18 18:14:05;;;;;;;16.65;11.43;;;;;;;;;;4969975;28;20044;-71
2023/09/18 18:16:31;;;;;;;16.98;11.38;;;;;;;;;;4969685;28;20042;-71
2023/09/18 18:18:57;;;;;;;14.93;11.43;;;;;;;;;;4953748;28;20114;-72
2023/09/18 18:21:23;;;;;;;14.90;10.45;;;;;;;;;;4958998;28;20038;-73
2023/09/18 18:23:49;;;;;;;17.15;11.57;;;;;;;;;;4959179;28;20049;-71
2023/09/18 18:26:16;;;;;;;11.73;10.52;;;;;;;;;;4973030;28;20042;-72
2023/09/18 18:28:42;;;;;;;17.92;11.73;;;;;;;;;;4975889;28;20057;-72
2023/09/18 18:31:08;;;;;;;13.20;11.82;;;;;;;;;;4957959;28;20466;-71
2023/09/18 18:33:35;;;;;;;18.42;12.65;;;;;;;;;;4958731;28;20542;-71
2023/09/18 18:36:03;;;;;;;15.75;13.07;;;;;;;;;;4976560;28;20057;-72
2023/09/18 18:38:29;;;;;;;14.23;12.93;;;;;;;;;;4959058;28;20038;-73
2023/09/18 18:40:56;;;;;;;22.65;13.65;;;;;;;;;;4958612;28;20050;-72
2023/09/18 18:43:35;;;;;;;20.23;13.90;;;;;;;;;;4959122;28;20045;-72
2023/09/18 18:46:01;;;;;;;16.15;11.82;;;;;;;;;;4959301;28;20052;-72
2023/09/18 18:48:27;;;;;;;11.00;9.38;;;;;;;;;;4976321;28;20183;-74
2023/09/18 18:51:02;;;;;;;15.82;11.25;;;;;;;;;;4976438;28;20050;-71
2023/09/18 18:53:29;;;;;;;14.00;10.20;;;;;;;;;;4959083;28;20051;-72
2023/09/18 18:55:56;;;;;;;24.27;15.40;;;;;;;;;;4943123;28;20512;-71
2023/09/18 18:58:22;;;;;;;28.10;18.98;;;;;;;;;;4956838;28;20043;-72
2023/09/18 19:00:51;;;;;;;32.10;16.60;;;;;;;;;;4940318;29;20077;-71
2023/09/18 19:03:16;;;;;;;21.23;16.13;;;;;;;;;;4960192;28;20037;-73
2023/09/18 19:05:45;;;;;;;20.33;13.32;;;;;;;;;;4975781;28;20042;-72
2023/09/18 19:08:11;;;;;;;17.77;13.02;;;;;;;;;;4974790;28;20042;-73
2023/09/18 19:10:40;;;;;;;19.65;12.40;;;;;;;;;;4974277;28;20043;-73
2023/09/18 19:13:12;;;;;;;15.18;12.35;;;;;;;;;;4973904;28;20530;-72
2023/09/18 19:15:38;;;;;;;16.08;13.07;;;;;;;;;;4971639;28;20042;-72
2023/09/18 19:18:05;;;;;;;18.83;12.07;;;;;;;;;;4973761;28;20533;-71
2023/09/18 19:20:31;;;;;;;36.25;22.75;;;;;;;;;;4971270;28;20046;-72
2023/09/18 19:22:59;;;;;;;31.80;22.33;;;;;;;;;;4977949;28;20442;-79
2023/09/18 19:25:28;;;;;;;15.18;12.60;;;;;;;;;;4958719;28;20098;-79
2023/09/18 19:27:54;;;;;;;36.08;18.42;;;;;;;;;;4970206;28;20522;-76
2023/09/18 19:30:20;;;;;;;32.40;18.55;;;;;;;;;;4963781;28;20046;-77
2023/09/18 19:32:46;;;;;;;26.48;19.77;;;;;;;;;;4956160;28;20055;-76
2023/09/18 19:35:12;;;;;;;24.73;17.38;;;;;;;;;;4973384;28;20031;-76
2023/09/18 19:37:38;;;;;;;35.33;18.75;;;;;;;;;;4973869;28;20101;-80
2023/09/18 19:40:06;;;;;;;32.30;17.25;;;;;;;;;;4957257;28;20503;-80
2023/09/18 19:42:32;;;;;;;30.77;18.40;;;;;;;;;;4974659;28;20050;-80
2023/09/18 19:44:58;;;;;;;21.52;15.63;;;;;;;;;;4974248;28;20082;-79
2023/09/18 19:47:25;;;;;;;27.80;18.70;;;;;;;;;;4973879;28;20046;-81
2023/09/18 19:49:51;;;;;;;25.02;17.60;;;;;;;;;;4974431;28;20034;-82
2023/09/18 19:52:17;;;;;;;21.40;15.88;;;;;;;;;;4956797;28;20081;-80
2023/09/18 19:54:43;;;;;;;34.25;18.60;;;;;;;;;;4957779;28;20574;-80
2023/09/18 19:57:10;;;;;;;114.72;33.78;;;;;;;;;;4957175;28;20050;-79
2023/09/18 19:59:36;;;;;;;64.60;27.02;;;;;;;;;;4946826;28;20050;-82
2023/09/18 20:02:05;;;;;;;40.33;21.85;;;;;;;;;;4980888;28;20049;-81
2023/09/18 20:04:32;;;;;;;15.95;12.23;;;;;;;;;;4980297;28;20082;-82
2023/09/18 20:06:58;;;;;;;19.58;13.02;;;;;;;;;;4976252;28;20134;-79
2023/09/18 20:09:24;;;;;;;20.52;12.65;;;;;;;;;;4956509;28;20047;-79
2023/09/18 20:11:51;;;;;;;25.55;13.40;;;;;;;;;;4973263;28;20053;-78
2023/09/18 20:14:18;;;;;;;27.90;16.98;;;;;;;;;;4972461;28;20129;-78
2023/09/18 20:16:44;;;;;;;20.38;14.93;;;;;;;;;;4972888;28;20529;-78
2023/09/18 20:19:13;;;;;;;17.48;14.05;;;;;;;;;;4955764;28;20109;-81
2023/09/18 20:21:40;;;;;;;22.35;13.70;;;;;;;;;;4972862;28;20137;-78
2023/09/18 20:24:07;;;;;;;17.10;12.40;;;;;;;;;;4955821;28;20094;-78